Etusivu
METAR-TAF:

METAR-TAF

Lentoasemat :

Chièvres, Belgia

Leveyspiiri: 50-34N, Pituuspiiri: 003-50E, korkeus merenpinnasta: 60 m

Tämänhetkinen sää

Tämä raportti tehtiin 30 minuuttia sitten, kello 20.55 UTC
Tuuli 9 kn lännestä/luoteesta
Lämpötila 6°C
Kosteus 87%
Ilmanpaine 1014 hPa
Näkyvyys 10 km tai enemmän

METAR: EBCV 182055Z AUTO 29009KT 9999 BKN031/// BKN055/// 06/04 Q1014 BLU

Aika: 22:25 (21:25 UTC)

Sääennuste

Tämä raportti tehtiin 5 tuntia ja 44 minuuttia sitten, kello 15.41 UTC
Ennuste voimassa 18. päivästä klo 19 UTC - 19. päivään klo 07 UTC
Tuuli 5 kn lännestä
Näkyvyys: 9000 m
Hajanaisia pilviä 2500 ft:n korkeudessa
Todennäköisyys 40% :
Ajoittain
18. päivästä klo 19 UTC - 19. päivään klo 07 UTC
Näkyvyys: 5000 m
Hajonneita pilviä 2000 ft:n korkeudessa
heikkoja vesikuuroja, utua

TAF: EBCV 181541Z 1819/1907 28005KT 9000 SCT025 PROB40 TEMPO 1819/1907 5000 -SHRA BR BKN020 BY EBWM

Säähavainnot ja -ennusteet yli 4000 lentoasemalta (METAR- ja TAF-raportit).

Käytössä olevat sääasemat on merkitty karttaan keltaisilla ja punaisilla pisteillä.

Aseta hiiri pisteen päälle nähdäksesi sääaseman nimen.

Klikkaa sitten nähdäksesi säähavainnot ja -ennusteet.

Kartan vaihtaminen: klikkaa mustalla rastilla varustettuja vihreitä pisteitä, niin voit zoomata sisään; viivalla varustettua vihreää pistettä, niin voit zoomata ulos tai vihreitä nuolia, niin pääset viereisille kartoille.


METAR-TAF: